createdAt,value
2018-09-30T00:00:28.183Z,560.9
2018-09-30T00:01:30.622Z,560.9
2018-09-30T00:02:33.052Z,561
2018-09-30T00:03:34.932Z,561.1
2018-09-30T00:04:37.084Z,561.1
2018-09-30T00:05:39.525Z,561.1
2018-09-30T00:06:41.686Z,561.1
2018-09-30T00:07:44.111Z,561.1
2018-09-30T00:08:46.269Z,561
2018-09-30T00:09:48.730Z,561.1
2018-09-30T00:10:50.884Z,561.3
2018-09-30T00:11:53.047Z,561.3
2018-09-30T00:12:55.221Z,561.3
2018-09-30T00:13:57.655Z,561.4
2018-09-30T00:15:00.078Z,561.6
2018-09-30T00:16:02.519Z,561.7
2018-09-30T00:17:04.959Z,561.8
2018-09-30T00:18:07.382Z,562.1
2018-09-30T00:19:09.825Z,561.9
2018-09-30T00:20:12.258Z,561.9
2018-09-30T00:21:14.689Z,562.2
2018-09-30T00:22:17.126Z,562.1
2018-09-30T00:23:19.562Z,562.1
2018-09-30T00:24:21.742Z,562
2018-09-30T00:25:23.898Z,562.1
2018-09-30T00:26:26.332Z,562.1
2018-09-30T00:27:28.758Z,562.3
2018-09-30T00:28:30.645Z,561.7
2018-09-30T00:29:32.805Z,561.7
2018-09-30T00:30:35.245Z,561.5
2018-09-30T00:31:37.390Z,561.7
2018-09-30T00:32:39.541Z,561.7
2018-09-30T00:33:41.973Z,562
2018-09-30T00:34:44.145Z,562.1
2018-09-30T00:35:46.304Z,562.1
2018-09-30T00:36:48.725Z,562.3
2018-09-30T00:37:50.589Z,562.2
2018-09-30T00:38:53.014Z,562.1
2018-09-30T00:39:55.439Z,562.5
2018-09-30T00:40:57.609Z,562.5
2018-09-30T00:41:59.756Z,562.7
2018-09-30T00:43:01.916Z,562.7
2018-09-30T00:44:04.070Z,563
2018-09-30T00:45:06.501Z,562.8
2018-09-30T00:46:08.674Z,563.3
2018-09-30T00:47:11.116Z,563.3
2018-09-30T00:48:13.277Z,563.5
2018-09-30T00:49:15.433Z,563.7
2018-09-30T00:50:17.320Z,563.4
2018-09-30T00:51:19.751Z,563.3
2018-09-30T00:52:22.235Z,563.7
2018-09-30T00:53:24.103Z,563.2
2018-09-30T00:54:26.526Z,563.4
2018-09-30T00:55:28.971Z,563.3
2018-09-30T00:56:31.411Z,563.7
2018-09-30T00:57:33.293Z,563.3
2018-09-30T00:58:35.726Z,563.6
2018-09-30T00:59:37.878Z,563.6
2018-09-30T01:00:40.304Z,563.3
2018-09-30T01:01:42.732Z,563.3
2018-09-30T01:02:45.161Z,563.8
2018-09-30T01:03:47.306Z,563.3
2018-09-30T01:04:49.436Z,563.7
2018-09-30T01:05:51.861Z,563.1
2018-09-30T01:06:54.295Z,563.6
2018-09-30T01:07:56.731Z,563.7
2018-09-30T01:08:59.152Z,563.3
2018-09-30T01:10:01.591Z,563.4
2018-09-30T01:11:04.023Z,563.7
2018-09-30T01:12:06.439Z,563.5
2018-09-30T01:13:08.876Z,563.8
2018-09-30T01:14:10.770Z,563.5
2018-09-30T01:15:12.943Z,563.6
2018-09-30T01:16:15.365Z,563.9
2018-09-30T01:17:17.795Z,563.7
2018-09-30T01:18:19.943Z,564.2
2018-09-30T01:19:22.375Z,564.1
2018-09-30T01:20:24.813Z,564.3
2018-09-30T01:21:27.254Z,564.1
2018-09-30T01:22:29.147Z,564.5
2018-09-30T01:23:31.572Z,564.6
2018-09-30T01:24:33.997Z,564.6
2018-09-30T01:25:36.155Z,564.4
2018-09-30T01:26:44.093Z,564.6
2018-09-30T01:27:46.261Z,564.5
2018-09-30T01:28:48.700Z,564.8
2018-09-30T01:29:51.127Z,564.7
2018-09-30T01:30:53.285Z,564.9
2018-09-30T01:31:55.441Z,565.1
2018-09-30T01:32:57.868Z,565.1
2018-09-30T01:34:00.029Z,565
2018-09-30T01:35:02.191Z,565
2018-09-30T01:36:04.357Z,564.8
2018-09-30T01:37:06.245Z,564.8
2018-09-30T01:38:08.671Z,565
2018-09-30T01:39:10.805Z,565.4
2018-09-30T01:40:13.236Z,565.3
2018-09-30T01:41:15.399Z,565.3
2018-09-30T01:42:17.827Z,565.1
2018-09-30T01:43:19.989Z,565.4
2018-09-30T01:44:22.155Z,565.3
2018-09-30T01:45:24.584Z,565.3
2018-09-30T01:46:26.750Z,565.3
2018-09-30T01:47:28.907Z,565.4
2018-09-30T01:48:31.333Z,565.4
2018-09-30T01:49:33.772Z,565.3
2018-09-30T01:50:36.209Z,566.2
2018-09-30T01:51:38.641Z,565.6
2018-09-30T01:52:41.065Z,565.8
2018-09-30T01:53:43.496Z,566.1
2018-09-30T01:54:45.654Z,566.2
2018-09-30T01:55:47.521Z,565.9
2018-09-30T01:56:49.685Z,566.3
2018-09-30T01:57:52.107Z,566.3
2018-09-30T01:58:54.542Z,566.3
2018-09-30T01:59:56.978Z,566.8
2018-09-30T02:00:59.399Z,566.5
2018-09-30T02:02:01.833Z,566.4
2018-09-30T02:03:04.267Z,566.6
2018-09-30T02:04:06.707Z,566.6
2018-09-30T02:05:09.140Z,566.5
2018-09-30T02:06:11.565Z,566.6
2018-09-30T02:07:13.995Z,567
2018-09-30T02:08:16.418Z,566.6
2018-09-30T02:09:18.859Z,566.6
2018-09-30T02:10:21.013Z,566.6
2018-09-30T02:11:22.901Z,566
2018-09-30T02:12:25.353Z,566.6
2018-09-30T02:13:27.496Z,566.7
2018-09-30T02:14:29.660Z,566.4
2018-09-30T02:15:31.559Z,566.6
2018-09-30T02:16:33.731Z,567
2018-09-30T02:17:36.173Z,566.5
2018-09-30T02:18:38.594Z,566.6
2018-09-30T02:19:41.026Z,566.7
2018-09-30T02:20:43.456Z,566.7
2018-09-30T02:21:45.883Z,566.8
2018-09-30T02:22:48.023Z,567
2018-09-30T02:23:50.190Z,567.1
2018-09-30T02:24:52.337Z,567.3
2018-09-30T02:25:54.775Z,567.4
2018-09-30T02:26:57.227Z,567.5
2018-09-30T02:27:59.388Z,567.7
2018-09-30T02:29:01.275Z,567.6
2018-09-30T02:30:03.726Z,567.5
2018-09-30T02:31:05.605Z,567.7
2018-09-30T02:32:08.032Z,567.6
2018-09-30T02:33:10.167Z,567.6
2018-09-30T02:34:12.605Z,567.7
2018-09-30T02:35:14.759Z,567.3
2018-09-30T02:36:16.934Z,567.2
2018-09-30T02:37:18.808Z,566.9
2018-09-30T02:38:20.981Z,567.6
2018-09-30T02:39:23.117Z,567.1
2018-09-30T02:40:25.255Z,567.5
2018-09-30T02:41:27.429Z,567
2018-09-30T02:42:29.583Z,567.2
2018-09-30T02:43:31.817Z,567.3
2018-09-30T02:44:33.961Z,567.4
2018-09-30T02:45:36.417Z,567.3
2018-09-30T02:46:38.293Z,567.6
2018-09-30T02:47:40.446Z,567.4
2018-09-30T02:48:42.606Z,567.4
2018-09-30T02:49:45.040Z,567.6
2018-09-30T02:50:47.506Z,567.6
2018-09-30T02:51:49.933Z,567.7
2018-09-30T02:52:52.371Z,567.8
2018-09-30T02:53:54.803Z,567.7
2018-09-30T02:54:57.229Z,568.4
2018-09-30T02:55:59.663Z,568.4
2018-09-30T02:57:02.084Z,567.6
2018-09-30T02:58:04.246Z,568.6
2018-09-30T02:59:06.681Z,568.1
2018-09-30T03:00:08.822Z,568.2
2018-09-30T03:01:10.979Z,567.9
2018-09-30T03:02:13.134Z,567.9
2018-09-30T03:03:15.023Z,567.7
2018-09-30T03:04:17.186Z,568
2018-09-30T03:05:19.615Z,568
2018-09-30T03:06:22.043Z,568.3
2018-09-30T03:07:23.914Z,568.4
2018-09-30T03:08:26.341Z,568.7
2018-09-30T03:09:28.500Z,568.6
2018-09-30T03:10:30.943Z,569.1
2018-09-30T03:11:33.381Z,568.9
2018-09-30T03:12:35.845Z,568.9
2018-09-30T03:13:37.748Z,569.1
2018-09-30T03:14:40.169Z,569.6
2018-09-30T03:15:42.601Z,569.7
2018-09-30T03:16:44.764Z,569.3
2018-09-30T03:17:46.932Z,569.3
2018-09-30T03:18:49.354Z,569.1
2018-09-30T03:19:51.789Z,569.3
2018-09-30T03:20:54.207Z,569.5
2018-09-30T03:21:56.633Z,569.6
2018-09-30T03:22:58.503Z,569.9
2018-09-30T03:24:00.965Z,570.1
2018-09-30T03:25:03.116Z,570.3
2018-09-30T03:26:05.557Z,570.3
2018-09-30T03:27:07.987Z,570.7
2018-09-30T03:28:10.410Z,570.4
2018-09-30T03:29:12.567Z,570.8
2018-09-30T03:30:14.740Z,570.7
2018-09-30T03:31:17.159Z,570.7
2018-09-30T03:32:19.599Z,570.5
2018-09-30T03:33:22.036Z,570.6
2018-09-30T03:34:24.200Z,570.4
2018-09-30T03:35:26.613Z,570.8
2018-09-30T03:36:28.498Z,570.7
2018-09-30T03:37:30.940Z,570.6
2018-09-30T03:38:33.364Z,570.5
2018-09-30T03:39:35.816Z,570.6
2018-09-30T03:40:38.287Z,571
2018-09-30T03:41:40.719Z,570.9
2018-09-30T03:42:43.160Z,571
2018-09-30T03:43:45.647Z,571.1
2018-09-30T03:44:47.807Z,571.1
2018-09-30T03:45:50.237Z,570.7
2018-09-30T03:46:52.402Z,570.8
2018-09-30T03:47:54.840Z,571.2
2018-09-30T03:48:57.284Z,571.3
2018-09-30T03:49:59.448Z,570.9
2018-09-30T03:51:01.875Z,571.1
2018-09-30T03:52:04.308Z,571.4
2018-09-30T03:53:06.732Z,571.3
2018-09-30T03:54:08.615Z,570.9
2018-09-30T03:55:11.047Z,571.2
2018-09-30T03:56:13.473Z,571.2
2018-09-30T03:57:15.901Z,571
2018-09-30T03:58:17.788Z,570.8
2018-09-30T03:59:20.221Z,570.8
2018-09-30T04:00:22.653Z,570.7
2018-09-30T04:01:24.819Z,570.8
2018-09-30T04:02:27.275Z,570.9
2018-09-30T04:03:29.714Z,570.8
2018-09-30T04:04:31.856Z,570.8
2018-09-30T04:05:34.012Z,571
2018-09-30T04:06:36.439Z,570.9
2018-09-30T04:07:38.671Z,570.8
2018-09-30T04:08:41.085Z,571.3
2018-09-30T04:09:44.236Z,571.3
2018-09-30T04:10:46.734Z,571.1
2018-09-30T04:11:48.896Z,571.6
2018-09-30T04:12:51.339Z,571.5
2018-09-30T04:13:53.494Z,571.7
2018-09-30T04:14:55.656Z,571.5
2018-09-30T04:15:58.090Z,571.6
2018-09-30T04:17:01.136Z,571.5
2018-09-30T04:18:03.578Z,572
2018-09-30T04:19:06.017Z,572.4
2018-09-30T04:20:08.454Z,572.4
2018-09-30T04:21:10.630Z,572.8
2018-09-30T04:22:12.785Z,573.1
2018-09-30T04:23:15.227Z,573.3
2018-09-30T04:24:17.396Z,573.7
2018-09-30T04:25:19.824Z,573.7
2018-09-30T04:26:21.995Z,573.9
2018-09-30T04:27:24.427Z,573.6
2018-09-30T04:28:26.875Z,573.8
2018-09-30T04:29:29.307Z,574
2018-09-30T04:30:31.737Z,574
2018-09-30T04:31:34.168Z,573.8
2018-09-30T04:32:36.607Z,574.5
2018-09-30T04:33:39.048Z,574.2
2018-09-30T04:34:41.218Z,574
2018-09-30T04:35:43.372Z,573.7
2018-09-30T04:36:45.546Z,573.7
2018-09-30T04:37:47.704Z,573.8
2018-09-30T04:38:49.886Z,573.7
2018-09-30T04:39:52.331Z,574.2
2018-09-30T04:40:54.757Z,573.9
2018-09-30T04:41:57.186Z,574.1
2018-09-30T04:42:59.615Z,574.6
2018-09-30T04:44:02.036Z,574
2018-09-30T04:45:04.197Z,573.9
2018-09-30T04:46:06.079Z,573.7
2018-09-30T04:47:08.505Z,573.2
2018-09-30T04:48:10.926Z,573.6
2018-09-30T04:49:13.353Z,573.4
2018-09-30T04:50:15.784Z,573.6
2018-09-30T04:51:18.213Z,573.5
2018-09-30T04:52:20.648Z,573.9
2018-09-30T04:53:22.543Z,573.8
2018-09-30T04:54:24.979Z,573.9
2018-09-30T04:55:27.412Z,573.9
2018-09-30T04:56:29.578Z,574.3
2018-09-30T04:57:32.001Z,574.2
2018-09-30T04:58:34.163Z,574.2
2018-09-30T04:59:36.325Z,574.2
2018-09-30T05:00:38.492Z,574.6
2018-09-30T05:01:40.927Z,574.3
2018-09-30T05:02:43.084Z,574.6
2018-09-30T05:03:45.519Z,574.1
2018-09-30T05:04:47.420Z,574.3
2018-09-30T05:05:50.120Z,574.3
2018-09-30T05:06:52.342Z,574.4
2018-09-30T05:07:54.764Z,574.3
2018-09-30T05:08:57.195Z,573.7
2018-09-30T05:09:59.647Z,574.2
2018-09-30T05:11:02.091Z,573.9
2018-09-30T05:12:03.701Z,574.1
2018-09-30T05:13:05.851Z,573.7
2018-09-30T05:14:08.288Z,573.4
2018-09-30T05:15:10.713Z,573.9
2018-09-30T05:16:13.367Z,573.8
2018-09-30T05:17:15.796Z,574
2018-09-30T05:18:17.965Z,574
2018-09-30T05:19:20.130Z,574.8
2018-09-30T05:20:22.563Z,574.2
2018-09-30T05:21:25.006Z,574.5
2018-09-30T05:22:27.160Z,574.4
2018-09-30T05:23:29.310Z,574.4
2018-09-30T05:24:31.736Z,574.8
2018-09-30T05:25:34.265Z,574.8
2018-09-30T05:26:36.692Z,574.7
2018-09-30T05:27:39.128Z,575.1
2018-09-30T05:28:41.264Z,575.4
2018-09-30T05:29:43.133Z,575.2
2018-09-30T05:30:45.567Z,574.6
2018-09-30T05:31:47.724Z,574.8
2018-09-30T05:32:49.876Z,574.8
2018-09-30T05:33:52.304Z,574.9
2018-09-30T05:34:54.726Z,575.3
2018-09-30T05:35:56.919Z,575.3
2018-09-30T05:36:59.403Z,574.9
2018-09-30T05:38:01.551Z,575
2018-09-30T05:39:03.695Z,574.9
2018-09-30T05:40:05.847Z,575.2
2018-09-30T05:41:08.272Z,575.3
2018-09-30T05:42:10.444Z,575
2018-09-30T05:43:12.879Z,574.9
2018-09-30T05:44:15.303Z,575
2018-09-30T05:45:17.753Z,574.8
2018-09-30T05:46:20.196Z,574.8
2018-09-30T05:47:22.627Z,574.7
2018-09-30T05:48:25.067Z,574.9
2018-09-30T05:49:27.506Z,574.9
2018-09-30T05:50:29.694Z,574.8
2018-09-30T05:51:31.845Z,574.8
2018-09-30T05:52:34.276Z,574.8
2018-09-30T05:53:36.700Z,574.6
2018-09-30T05:54:39.126Z,574.9
2018-09-30T05:55:41.284Z,574.9
2018-09-30T05:56:43.728Z,574.3
2018-09-30T05:57:46.591Z,574.7
2018-09-30T05:58:49.015Z,574.5
2018-09-30T05:59:51.445Z,574.9
2018-09-30T06:00:53.860Z,574.3
2018-09-30T06:01:56.028Z,574.3
2018-09-30T06:02:58.256Z,574.5
2018-09-30T06:04:00.663Z,574.3
2018-09-30T06:05:03.104Z,574.7
2018-09-30T06:06:05.536Z,574.5
2018-09-30T06:07:07.978Z,574.8
2018-09-30T06:08:10.159Z,574.8
2018-09-30T06:09:12.955Z,574.6
2018-09-30T06:10:15.564Z,574.9
2018-09-30T06:11:17.430Z,574.8
2018-09-30T06:12:19.642Z,575.2
2018-09-30T06:13:21.826Z,574.9
2018-09-30T06:14:24.534Z,575.4
2018-09-30T06:15:26.427Z,575.1
2018-09-30T06:16:28.910Z,575.6
2018-09-30T06:17:31.350Z,575.5
2018-09-30T06:18:33.773Z,575.5
2018-09-30T06:19:36.198Z,575.3
2018-09-30T06:20:38.681Z,575.2
2018-09-30T06:21:41.113Z,575.3
2018-09-30T06:22:42.995Z,575.3
2018-09-30T06:23:45.423Z,575.2
2018-09-30T06:24:47.568Z,575.2
2018-09-30T06:25:50.004Z,575.5
2018-09-30T06:26:52.439Z,575.5
2018-09-30T06:27:54.877Z,575.7
2018-09-30T06:28:57.028Z,575.8
2018-09-30T06:29:58.640Z,575.8
2018-09-30T06:31:01.079Z,576
2018-09-30T06:32:03.545Z,576.3
2018-09-30T06:33:05.685Z,576.9
2018-09-30T06:34:07.830Z,576.4
2018-09-30T06:35:09.704Z,576.2
2018-09-30T06:36:12.155Z,576.5
2018-09-30T06:37:14.290Z,576.6
2018-09-30T06:38:16.715Z,576.9
2018-09-30T06:39:19.176Z,576.6
2018-09-30T06:40:21.882Z,576.8
2018-09-30T06:41:24.308Z,576.7
2018-09-30T06:42:26.736Z,577
2018-09-30T06:43:28.867Z,576.6
2018-09-30T06:44:31.291Z,576.6
2018-09-30T06:45:34.108Z,576.6
2018-09-30T06:46:36.652Z,576.6
2018-09-30T06:47:39.166Z,576.8
2018-09-30T06:48:41.051Z,576.5
2018-09-30T06:49:43.205Z,576.7
2018-09-30T06:50:45.746Z,576.1
2018-09-30T06:51:47.977Z,576.7
2018-09-30T06:52:50.142Z,576.7
2018-09-30T06:53:52.277Z,576.4
2018-09-30T06:54:54.742Z,576.5
2018-09-30T06:55:57.176Z,576.2
2018-09-30T06:56:59.616Z,576.6
2018-09-30T06:58:02.058Z,576.4
2018-09-30T06:59:04.233Z,576.4
2018-09-30T07:00:06.377Z,576.2
2018-09-30T07:01:08.808Z,576.4
2018-09-30T07:02:11.241Z,576.4
2018-09-30T07:03:13.676Z,576.5
2018-09-30T07:04:16.101Z,576.5
2018-09-30T07:05:18.284Z,576.2
2018-09-30T07:06:20.452Z,576.2
2018-09-30T07:07:22.875Z,576.7
2018-09-30T07:08:25.137Z,576.5
2018-09-30T07:09:27.343Z,576.5
2018-09-30T07:10:29.514Z,576.4
2018-09-30T07:11:31.687Z,576.2
2018-09-30T07:12:33.863Z,576.5
2018-09-30T07:13:36.031Z,576.5
2018-09-30T07:14:38.453Z,577
2018-09-30T07:15:40.919Z,576.8
2018-09-30T07:16:42.921Z,577.1
2018-09-30T07:17:44.824Z,577.4
2018-09-30T07:18:47.002Z,577.3
2018-09-30T07:19:49.441Z,577.4
2018-09-30T07:20:51.873Z,577.1
2018-09-30T07:21:54.336Z,577.6
2018-09-30T07:22:56.770Z,577.6
2018-09-30T07:23:58.648Z,577.5
2018-09-30T07:25:00.553Z,577.3
2018-09-30T07:26:03.008Z,577.4
2018-09-30T07:27:05.451Z,577.5
2018-09-30T07:28:07.615Z,577.6
2018-09-30T07:29:10.046Z,577.5
2018-09-30T07:30:12.482Z,577.6
2018-09-30T07:31:14.941Z,577.5
2018-09-30T07:32:17.386Z,577.4
2018-09-30T07:33:19.820Z,577
2018-09-30T07:34:22.110Z,577.3
2018-09-30T07:35:24.463Z,576.8
2018-09-30T07:36:26.653Z,576.9
2018-09-30T07:37:29.121Z,577.2
2018-09-30T07:38:31.544Z,577.2
2018-09-30T07:39:34.196Z,577.1
2018-09-30T07:40:36.647Z,576.8
2018-09-30T07:41:39.095Z,576.8
2018-09-30T07:42:41.536Z,576.8
2018-09-30T07:43:43.978Z,576.9
2018-09-30T07:44:46.404Z,576.7
2018-09-30T07:45:48.576Z,576.9
2018-09-30T07:46:51.590Z,577.4
2018-09-30T07:47:54.050Z,577.3
2018-09-30T07:48:56.210Z,577.2
2018-09-30T07:49:58.654Z,577.4
2018-09-30T07:51:01.106Z,577.2
2018-09-30T07:52:03.530Z,577.7
2018-09-30T07:53:05.695Z,577.5
2018-09-30T07:54:08.133Z,578
2018-09-30T07:55:10.569Z,577.5
2018-09-30T07:56:12.981Z,577.9
2018-09-30T07:57:14.884Z,578.2
2018-09-30T07:58:16.775Z,578.1
2018-09-30T07:59:19.244Z,578
2018-09-30T08:00:21.700Z,578.1
2018-09-30T08:01:23.850Z,578.3
2018-09-30T08:02:26.001Z,578.5
2018-09-30T08:03:28.461Z,578.4
2018-09-30T08:04:30.892Z,578.7
2018-09-30T08:05:33.339Z,578.1
2018-09-30T08:06:35.895Z,578.4
2018-09-30T08:07:38.333Z,578.2
2018-09-30T08:08:40.496Z,578.1
2018-09-30T08:09:42.673Z,578.5
2018-09-30T08:10:45.119Z,578.5
2018-09-30T08:11:47.545Z,578.8
2018-09-30T08:12:49.683Z,578.5
2018-09-30T08:13:52.124Z,578.8
2018-09-30T08:14:54.573Z,578.9
2018-09-30T08:15:56.744Z,578.8
2018-09-30T08:16:59.732Z,578.6
2018-09-30T08:18:01.981Z,578.3
2018-09-30T08:19:04.424Z,578.7
2018-09-30T08:20:06.565Z,578.6
2018-09-30T08:21:09.003Z,578.6
2018-09-30T08:22:11.164Z,578.5
2018-09-30T08:23:13.605Z,578.6
2018-09-30T08:24:16.514Z,578.8
2018-09-30T08:25:18.992Z,578.7
2018-09-30T08:26:21.416Z,578.8
2018-09-30T08:27:23.588Z,578.7
2018-09-30T08:28:26.078Z,578.9
2018-09-30T08:29:28.246Z,578.7
2018-09-30T08:30:30.692Z,578.5
2018-09-30T08:31:33.136Z,579
2018-09-30T08:32:35.322Z,578.5
2018-09-30T08:33:37.739Z,578.7
2018-09-30T08:34:39.911Z,578.8
2018-09-30T08:35:42.339Z,578.2
2018-09-30T08:36:44.499Z,578.4
2018-09-30T08:37:46.668Z,578.8
2018-09-30T08:38:49.097Z,578.6
2018-09-30T08:39:52.308Z,578
2018-09-30T08:40:54.883Z,578
2018-09-30T08:41:57.059Z,578.1
2018-09-30T08:42:59.505Z,578.1
2018-09-30T08:44:01.749Z,578.7
2018-09-30T08:45:03.914Z,578.5
2018-09-30T08:46:06.347Z,578.6
2018-09-30T08:47:09.009Z,578.3
2018-09-30T08:48:11.159Z,578.3
2018-09-30T08:49:13.812Z,578.3
2018-09-30T08:50:16.293Z,578.2
2018-09-30T08:51:18.839Z,578.5
2018-09-30T08:52:21.302Z,578.2
2018-09-30T08:53:23.464Z,578.3
2018-09-30T08:54:25.912Z,578.5
2018-09-30T08:55:28.088Z,578
2018-09-30T08:56:30.251Z,578.6
2018-09-30T08:57:32.695Z,578.7
2018-09-30T08:58:35.132Z,578.7
2018-09-30T08:59:36.721Z,578.7
2018-09-30T09:00:39.170Z,578.9
2018-09-30T09:01:41.594Z,578.8
2018-09-30T09:02:43.749Z,578.9
2018-09-30T09:03:46.186Z,578.7
2018-09-30T09:04:48.612Z,579.2
2018-09-30T09:05:51.079Z,579
2018-09-30T09:06:53.507Z,578.8
2018-09-30T09:07:55.934Z,578.6
2018-09-30T09:08:58.424Z,578.9
2018-09-30T09:10:00.893Z,578.6
2018-09-30T09:11:03.325Z,579.5
2018-09-30T09:12:05.799Z,579.3
2018-09-30T09:13:08.238Z,579.2
2018-09-30T09:14:10.676Z,579.1
2018-09-30T09:15:13.104Z,579.2
2018-09-30T09:16:14.956Z,579.3
2018-09-30T09:17:16.822Z,578.9
2018-09-30T09:18:19.264Z,579.5
2018-09-30T09:19:21.706Z,579.8
2018-09-30T09:20:24.140Z,579.9
2018-09-30T09:21:26.568Z,580.2
2018-09-30T09:22:29.662Z,579.9
2018-09-30T09:23:32.155Z,580.4
2018-09-30T09:24:34.594Z,580.4
2018-09-30T09:25:36.764Z,580.4
2018-09-30T09:26:39.191Z,580.6
2018-09-30T09:27:41.628Z,581.5
2018-09-30T09:28:44.055Z,581.1
2018-09-30T09:29:46.498Z,580.8
2018-09-30T09:30:48.939Z,581.1
2018-09-30T09:31:51.752Z,581.4
2018-09-30T09:32:54.315Z,581.9
2018-09-30T09:33:56.799Z,581.4
2018-09-30T09:34:59.040Z,581.1
2018-09-30T09:36:01.258Z,581.2
2018-09-30T09:37:03.706Z,581.7
2018-09-30T09:38:05.587Z,581.6
2018-09-30T09:39:08.023Z,581.7
2018-09-30T09:40:10.457Z,582.3
2018-09-30T09:41:12.629Z,581.7
2018-09-30T09:42:14.528Z,581.6
2018-09-30T09:43:16.965Z,581.6
2018-09-30T09:44:19.415Z,581.8
2018-09-30T09:45:21.848Z,582
2018-09-30T09:46:24.007Z,582.1
2018-09-30T09:47:26.444Z,582.1
2018-09-30T09:48:28.647Z,582.3
2018-09-30T09:49:31.075Z,582.7
2018-09-30T09:50:32.943Z,583
2018-09-30T09:51:35.376Z,582.8
2018-09-30T09:52:37.900Z,582.7
2018-09-30T09:53:40.355Z,582.7
2018-09-30T09:54:42.877Z,582.5
2018-09-30T09:55:45.035Z,582.4
2018-09-30T09:56:46.910Z,582.5
2018-09-30T09:57:49.338Z,582.6
2018-09-30T09:58:51.847Z,582.7
2018-09-30T09:59:54.015Z,583.3
2018-09-30T10:00:56.171Z,583.3
2018-09-30T10:01:58.336Z,583.5
2018-09-30T10:03:00.486Z,583.8
2018-09-30T10:04:02.908Z,583.9
2018-09-30T10:05:05.715Z,583.9
2018-09-30T10:06:08.204Z,583.9
2018-09-30T10:07:10.377Z,583.8
2018-09-30T10:08:13.232Z,583.5
2018-09-30T10:09:15.382Z,583.7
2018-09-30T10:10:17.552Z,583.9
2018-09-30T10:11:19.716Z,583.9
2018-09-30T10:12:21.875Z,584
2018-09-30T10:13:24.607Z,583.6
2018-09-30T10:14:27.052Z,583.6
2018-09-30T10:15:29.492Z,583.8
2018-09-30T10:16:31.920Z,584.1
2018-09-30T10:17:34.355Z,584.1
2018-09-30T10:18:36.789Z,584.2
2018-09-30T10:19:39.555Z,584.4
2018-09-30T10:20:41.728Z,584.7
2018-09-30T10:21:44.166Z,584.7
2018-09-30T10:22:46.596Z,585
2018-09-30T10:23:49.024Z,585.3
2018-09-30T10:24:51.454Z,585.4
2018-09-30T10:25:53.821Z,584.9
2018-09-30T10:26:56.251Z,585.3
2018-09-30T10:27:58.696Z,585.1
2018-09-30T10:29:00.825Z,585.4
2018-09-30T10:30:02.979Z,585.3
2018-09-30T10:31:05.423Z,585.4
2018-09-30T10:32:07.862Z,585.5
2018-09-30T10:33:10.298Z,586
2018-09-30T10:34:12.738Z,585.9
2018-09-30T10:35:15.178Z,585.9
2018-09-30T10:36:17.608Z,586
2018-09-30T10:37:20.042Z,586.1
2018-09-30T10:38:23.279Z,586.6
2018-09-30T10:39:25.885Z,586.7
2018-09-30T10:40:28.048Z,586.9
2018-09-30T10:41:30.501Z,586.8
2018-09-30T10:42:32.931Z,586.8
2018-09-30T10:43:35.370Z,587.5
2018-09-30T10:44:37.811Z,587.7
2018-09-30T10:45:39.975Z,587.5
2018-09-30T10:46:42.141Z,588
2018-09-30T10:47:44.315Z,587.8
2018-09-30T10:48:46.477Z,588
2018-09-30T10:49:48.910Z,587.9
2018-09-30T10:50:51.335Z,588.5
2018-09-30T10:51:53.772Z,588.5
2018-09-30T10:52:56.212Z,588.6
2018-09-30T10:53:58.358Z,589
2018-09-30T10:55:00.800Z,589.2
2018-09-30T10:56:02.996Z,589.1
2018-09-30T10:57:05.135Z,589.5
2018-09-30T10:58:07.569Z,589.7
2018-09-30T10:59:09.990Z,589.6
2018-09-30T11:00:12.427Z,590
2018-09-30T11:01:14.866Z,590
2018-09-30T11:02:17.019Z,590
2018-09-30T11:03:19.038Z,590.5
2018-09-30T11:04:21.184Z,590.7
2018-09-30T11:05:23.626Z,590.2
2018-09-30T11:06:26.150Z,590.4
2018-09-30T11:07:28.413Z,590.9
2018-09-30T11:08:30.869Z,590.9
2018-09-30T11:09:33.498Z,591.3
2018-09-30T11:10:35.915Z,591
2018-09-30T11:11:38.357Z,591.3
2018-09-30T11:12:40.797Z,591.4
2018-09-30T11:13:43.247Z,591.6
2018-09-30T11:14:45.412Z,591.9
2018-09-30T11:15:47.850Z,591.6
2018-09-30T11:16:50.029Z,592.1
2018-09-30T11:17:52.452Z,591.8
2018-09-30T11:18:54.596Z,592.1
2018-09-30T11:19:57.036Z,591.7
2018-09-30T11:20:59.467Z,592
2018-09-30T11:22:01.627Z,592
2018-09-30T11:23:03.786Z,592.2
2018-09-30T11:24:05.944Z,592.3
2018-09-30T11:25:07.587Z,592.4
2018-09-30T11:26:10.043Z,592.3
2018-09-30T11:27:12.478Z,592.4
2018-09-30T11:28:14.918Z,592.7
2018-09-30T11:29:17.071Z,593.1
2018-09-30T11:30:19.505Z,592.7
2018-09-30T11:31:21.935Z,593.1
2018-09-30T11:32:24.388Z,593.6
2018-09-30T11:33:26.816Z,593.2
2018-09-30T11:34:28.989Z,593.6
2018-09-30T11:35:31.437Z,593.6
2018-09-30T11:36:33.878Z,594.1
2018-09-30T11:37:36.320Z,594.1
2018-09-30T11:38:38.756Z,593.9
2018-09-30T11:39:40.936Z,594
2018-09-30T11:40:43.377Z,594.3
2018-09-30T11:41:45.814Z,594.1
2018-09-30T11:42:48.451Z,593.9
2018-09-30T11:43:50.616Z,594.3
2018-09-30T11:44:53.043Z,594.2
2018-09-30T11:45:55.220Z,594.4
2018-09-30T11:46:57.653Z,594.6
2018-09-30T11:47:59.808Z,594.5
2018-09-30T11:49:02.241Z,594.7
2018-09-30T11:50:04.678Z,595
2018-09-30T11:51:07.110Z,595.3
2018-09-30T11:52:09.281Z,595.4
2018-09-30T11:53:11.472Z,595.4
2018-09-30T11:54:13.458Z,595.6
2018-09-30T11:55:15.913Z,595.5
2018-09-30T11:56:18.401Z,595.6
2018-09-30T11:57:20.853Z,596
2018-09-30T11:58:23.291Z,596
2018-09-30T11:59:25.476Z,596.1
2018-09-30T12:00:27.913Z,596.6
2018-09-30T12:01:30.349Z,596.7
2018-09-30T12:02:32.793Z,596.9
2018-09-30T12:03:35.235Z,597.2
2018-09-30T12:04:37.138Z,597.2
2018-09-30T12:05:39.628Z,597.8
2018-09-30T12:06:41.945Z,597.8
2018-09-30T12:07:44.613Z,597.8
2018-09-30T12:08:46.759Z,598.4
2018-09-30T12:09:49.210Z,598.6
2018-09-30T12:10:51.376Z,598.6
2018-09-30T12:11:53.815Z,598.9
2018-09-30T12:12:56.262Z,599.5
2018-09-30T12:13:58.717Z,599.3
2018-09-30T12:15:01.164Z,599.5
2018-09-30T12:16:03.316Z,599.3
2018-09-30T12:17:05.798Z,599.9
2018-09-30T12:18:08.230Z,600.5
2018-09-30T12:19:10.697Z,599.7
2018-09-30T12:20:13.133Z,600.3
2018-09-30T12:21:15.566Z,600
2018-09-30T12:22:17.746Z,600
2018-09-30T12:23:19.916Z,600.1
2018-09-30T12:24:22.395Z,600.3
2018-09-30T12:25:24.826Z,600.2
2018-09-30T12:26:27.019Z,600.6
2018-09-30T12:27:29.205Z,601
2018-09-30T12:28:31.648Z,601
2018-09-30T12:29:34.077Z,601.3
2018-09-30T12:30:36.247Z,601.2
2018-09-30T12:31:38.687Z,601.5
2018-09-30T12:32:41.130Z,601.4
2018-09-30T12:33:43.554Z,601.8
2018-09-30T12:34:46.006Z,601.8
2018-09-30T12:35:48.437Z,601.6
2018-09-30T12:36:50.862Z,601.8
2018-09-30T12:37:53.307Z,602
2018-09-30T12:38:55.481Z,602.2
2018-09-30T12:39:57.916Z,602
2018-09-30T12:41:00.353Z,601.8
2018-09-30T12:42:02.785Z,602.2
2018-09-30T12:43:05.225Z,602.7
2018-09-30T12:44:07.665Z,602.6
2018-09-30T12:45:10.109Z,602.5
2018-09-30T12:46:12.538Z,602.9
2018-09-30T12:47:14.757Z,602.7
2018-09-30T12:48:17.178Z,603
2018-09-30T12:49:19.644Z,602.6
2018-09-30T12:50:21.835Z,602.9
2018-09-30T12:51:24.000Z,603
2018-09-30T12:52:26.445Z,602.9
2018-09-30T12:53:28.884Z,603
2018-09-30T12:54:31.326Z,603.2
2018-09-30T12:55:33.467Z,603.1
2018-09-30T12:56:35.637Z,603.1
2018-09-30T12:57:38.063Z,603.4
2018-09-30T12:58:40.492Z,603.2
2018-09-30T12:59:42.349Z,603.5
2018-09-30T13:00:44.519Z,603.4
2018-09-30T13:01:46.947Z,603.6
2018-09-30T13:02:49.372Z,603.5
2018-09-30T13:03:51.815Z,603.4
2018-09-30T13:04:54.252Z,603.6
2018-09-30T13:05:56.407Z,604.1
2018-09-30T13:06:58.561Z,604.1
2018-09-30T13:08:00.714Z,604.1
2018-09-30T13:09:03.142Z,604
2018-09-30T13:10:05.357Z,604.2
2018-09-30T13:11:07.531Z,604.1
2018-09-30T13:12:09.971Z,604.7
2018-09-30T13:13:12.155Z,604.4
2018-09-30T13:14:14.583Z,604.9
2018-09-30T13:15:17.017Z,604.6
2018-09-30T13:16:19.468Z,604.7
2018-09-30T13:17:21.915Z,604.9
2018-09-30T13:18:24.081Z,605.2
2018-09-30T13:19:26.236Z,605
2018-09-30T13:20:28.873Z,605.6
2018-09-30T13:21:31.369Z,605.6
2018-09-30T13:22:33.806Z,606
2018-09-30T13:23:36.244Z,605.8
2018-09-30T13:24:38.418Z,605.8
2018-09-30T13:25:40.857Z,605.9
2018-09-30T13:26:43.012Z,605.7
2018-09-30T13:27:45.463Z,606.1